createdAt,value
2023-05-22T00:01:46.872Z,94.84
2023-05-22T00:04:14.023Z,94.54
2023-05-22T00:06:43.930Z,94.60
2023-05-22T00:09:11.091Z,95.21
2023-05-22T00:11:38.058Z,95.49
2023-05-22T00:14:05.000Z,95.11
2023-05-22T00:16:32.122Z,94.41
2023-05-22T00:18:59.274Z,95.04
2023-05-22T00:21:27.892Z,95.54
2023-05-22T00:23:54.578Z,94.97
2023-05-22T00:26:23.456Z,94.87
2023-05-22T00:28:50.168Z,95.06
2023-05-22T00:31:16.924Z,94.70
2023-05-22T00:33:43.620Z,94.75
2023-05-22T00:36:10.250Z,95.03
2023-05-22T00:38:37.919Z,94.64
2023-05-22T00:41:06.496Z,94.53
2023-05-22T00:43:34.163Z,94.20
2023-05-22T00:46:01.040Z,94.24
2023-05-22T00:48:27.888Z,93.78
2023-05-22T00:50:55.308Z,93.53
2023-05-22T00:53:24.202Z,94.23
2023-05-22T00:55:52.349Z,93.96
2023-05-22T00:58:19.037Z,94.18
2023-05-22T01:00:49.023Z,95.05
2023-05-22T01:03:16.225Z,94.69
2023-05-22T01:05:43.694Z,94.93
2023-05-22T01:08:10.987Z,94.87
2023-05-22T01:10:39.884Z,94.64
2023-05-22T01:13:39.061Z,95.06
2023-05-22T01:16:35.411Z,95.55
2023-05-22T01:19:19.056Z,95.36
2023-05-22T01:22:05.076Z,95.28
2023-05-22T01:24:36.264Z,96.41
2023-05-22T01:27:35.363Z,96.44
2023-05-22T01:30:39.621Z,96.33
2023-05-22T01:33:08.417Z,96.53
2023-05-22T01:35:39.401Z,96.61
2023-05-22T01:38:07.784Z,96.47
2023-05-22T01:40:34.820Z,95.63
2023-05-22T01:43:03.982Z,95.34
2023-05-22T01:45:31.799Z,96.01
2023-05-22T01:47:58.954Z,95.65
2023-05-22T01:50:26.674Z,96.10
2023-05-22T01:53:33.008Z,95.61
2023-05-22T01:56:34.686Z,96.25
2023-05-22T01:59:26.074Z,96.00
2023-05-22T02:01:54.608Z,96.13
2023-05-22T02:04:23.584Z,96.15
2023-05-22T02:06:53.510Z,95.79
2023-05-22T02:09:23.543Z,96.31
2023-05-22T02:11:51.491Z,96.05
2023-05-22T02:14:18.879Z,96.68
2023-05-22T02:16:47.747Z,96.18
2023-05-22T02:19:15.444Z,96.38
2023-05-22T02:21:42.310Z,96.67
2023-05-22T02:24:09.223Z,96.62
2023-05-22T02:26:36.001Z,97.07
2023-05-22T02:29:02.801Z,96.65
2023-05-22T02:31:29.806Z,96.51
2023-05-22T02:33:56.722Z,96.58
2023-05-22T02:36:23.404Z,96.72
2023-05-22T02:38:50.065Z,96.62
2023-05-22T02:41:16.678Z,96.54
2023-05-22T02:43:43.483Z,96.76
2023-05-22T02:46:10.351Z,96.11
2023-05-22T02:48:37.020Z,96.21
2023-05-22T02:51:03.778Z,97.01
2023-05-22T02:53:30.446Z,96.90
2023-05-22T02:55:59.056Z,96.65
2023-05-22T02:58:25.949Z,97.70
2023-05-22T03:00:53.817Z,96.93
2023-05-22T03:03:20.660Z,96.47
2023-05-22T03:05:47.480Z,96.23
2023-05-22T03:08:16.063Z,95.31
2023-05-22T03:10:42.729Z,95.64
2023-05-22T03:13:09.426Z,95.39
2023-05-22T03:15:36.106Z,95.86
2023-05-22T03:18:03.121Z,96.33
2023-05-22T03:20:30.054Z,95.60
2023-05-22T03:22:56.644Z,94.83
2023-05-22T03:25:23.317Z,95.08
2023-05-22T03:27:50.036Z,95.40
2023-05-22T03:30:16.682Z,95.88
2023-05-22T03:32:43.473Z,95.71
2023-05-22T03:35:10.346Z,96.12
2023-05-22T03:37:37.074Z,96.27
2023-05-22T03:40:04.924Z,96.67
2023-05-22T03:42:31.813Z,96.61
2023-05-22T03:44:58.426Z,96.42
2023-05-22T03:47:25.145Z,96.30
2023-05-22T03:49:51.899Z,96.52
2023-05-22T03:52:18.650Z,96.24
2023-05-22T03:54:45.482Z,96.16
2023-05-22T03:57:12.175Z,96.12
2023-05-22T03:59:38.834Z,95.87
2023-05-22T04:02:05.693Z,96.29
2023-05-22T04:04:34.175Z,94.68
2023-05-22T04:07:02.803Z,94.55
2023-05-22T04:09:32.572Z,95.21
2023-05-22T04:11:59.243Z,94.95
2023-05-22T04:14:26.313Z,94.30
2023-05-22T04:16:53.108Z,94.54
2023-05-22T04:19:19.937Z,94.49
2023-05-22T04:21:47.732Z,94.10
2023-05-22T04:24:14.409Z,93.69
2023-05-22T04:26:42.574Z,94.04
2023-05-22T04:29:10.598Z,94.24
2023-05-22T04:31:37.598Z,94.24
2023-05-22T04:34:05.347Z,93.41
2023-05-22T04:36:31.997Z,92.61
2023-05-22T04:39:00.464Z,93.45
2023-05-22T04:41:28.003Z,92.92
2023-05-22T04:43:54.866Z,94.18
2023-05-22T04:46:21.685Z,92.99
2023-05-22T04:48:50.746Z,92.39
2023-05-22T04:51:17.436Z,92.34
2023-05-22T04:53:44.223Z,91.14
2023-05-22T04:56:13.078Z,91.36
2023-05-22T04:58:41.410Z,90.13
2023-05-22T05:01:09.700Z,90.01
2023-05-22T05:03:41.314Z,88.53
2023-05-22T05:06:10.206Z,87.34
2023-05-22T05:08:36.860Z,88.00
2023-05-22T05:11:03.567Z,88.48
2023-05-22T05:13:30.570Z,88.98
2023-05-22T05:15:59.323Z,87.36
2023-05-22T05:18:26.753Z,87.46
2023-05-22T05:20:53.768Z,87.55
2023-05-22T05:23:21.046Z,86.84
2023-05-22T05:25:47.876Z,85.84
2023-05-22T05:28:14.607Z,85.47
2023-05-22T05:30:41.517Z,86.38
2023-05-22T05:33:08.522Z,84.59
2023-05-22T05:35:35.678Z,85.15
2023-05-22T05:38:02.397Z,84.99
2023-05-22T05:40:30.014Z,84.20
2023-05-22T05:42:57.124Z,83.49
2023-05-22T05:45:23.778Z,83.94
2023-05-22T05:47:50.620Z,83.54
2023-05-22T05:50:17.349Z,82.81
2023-05-22T05:52:44.131Z,83.39
2023-05-22T05:55:11.044Z,83.81
2023-05-22T05:57:37.826Z,83.29
2023-05-22T06:00:05.895Z,82.47
2023-05-22T06:02:32.761Z,81.36
2023-05-22T06:04:59.557Z,81.88
2023-05-22T06:07:26.303Z,81.28
2023-05-22T06:09:53.079Z,79.93
2023-05-22T06:12:19.724Z,78.88
2023-05-22T06:14:46.415Z,79.43
2023-05-22T06:17:13.200Z,79.46
2023-05-22T06:19:39.948Z,79.04
2023-05-22T06:22:07.983Z,78.30
2023-05-22T06:24:34.663Z,78.92
2023-05-22T06:27:02.521Z,77.43
2023-05-22T06:29:29.309Z,76.52
2023-05-22T06:31:56.566Z,76.50
2023-05-22T06:34:23.593Z,76.01
2023-05-22T06:36:53.054Z,74.26
2023-05-22T06:39:19.760Z,74.46
2023-05-22T06:41:48.715Z,75.41
2023-05-22T06:44:15.492Z,74.86
2023-05-22T06:46:42.243Z,75.18
2023-05-22T06:49:09.008Z,74.96
2023-05-22T06:51:35.682Z,73.31
2023-05-22T06:54:04.463Z,70.92
2023-05-22T06:56:32.649Z,70.35
2023-05-22T06:58:59.329Z,71.45
2023-05-22T07:01:26.098Z,71.59
2023-05-22T07:03:52.937Z,70.97
2023-05-22T07:06:19.907Z,69.67
2023-05-22T07:08:46.606Z,67.04
2023-05-22T07:11:13.253Z,66.74
2023-05-22T07:13:39.882Z,65.65
2023-05-22T07:16:07.221Z,66.08
2023-05-22T07:18:34.100Z,64.53
2023-05-22T07:21:01.697Z,62.81
2023-05-22T07:23:28.558Z,63.78
2023-05-22T07:25:55.211Z,64.44
2023-05-22T07:28:21.988Z,64.79
2023-05-22T07:30:48.672Z,63.15
2023-05-22T07:33:15.320Z,58.85
2023-05-22T07:35:42.131Z,58.88
2023-05-22T07:38:08.897Z,55.84
2023-05-22T07:40:35.655Z,55.40
2023-05-22T07:43:02.337Z,53.28
2023-05-22T07:45:29.109Z,52.64
2023-05-22T07:47:56.910Z,51.71
2023-05-22T07:50:26.652Z,53.23
2023-05-22T07:52:53.547Z,53.81
2023-05-22T07:55:20.229Z,54.37
2023-05-22T07:57:47.497Z,53.75
2023-05-22T08:00:14.830Z,53.54
2023-05-22T08:02:41.813Z,54.21
2023-05-22T08:05:09.805Z,55.15
2023-05-22T08:07:37.005Z,53.54
2023-05-22T08:10:07.944Z,54.15
2023-05-22T08:12:34.738Z,53.99
2023-05-22T08:15:01.510Z,53.71
2023-05-22T08:17:28.200Z,51.31
2023-05-22T08:19:56.120Z,50.54
2023-05-22T08:22:22.925Z,50.53
2023-05-22T08:24:49.561Z,49.63
2023-05-22T08:27:16.236Z,49.25
2023-05-22T08:29:42.922Z,49.53
2023-05-22T08:32:09.700Z,47.94
2023-05-22T08:34:36.521Z,48.19
2023-05-22T08:37:03.428Z,48.93
2023-05-22T08:39:31.388Z,47.51
2023-05-22T08:41:59.417Z,48.38
2023-05-22T08:44:26.146Z,48.73
2023-05-22T08:46:56.577Z,48.58
2023-05-22T08:49:24.501Z,47.20
2023-05-22T08:51:56.674Z,48.18
2023-05-22T08:54:26.563Z,47.83
2023-05-22T08:56:57.279Z,46.61
2023-05-22T08:59:25.082Z,47.11
2023-05-22T09:01:53.579Z,46.75
2023-05-22T09:04:23.795Z,45.01
2023-05-22T09:06:52.215Z,46.38
2023-05-22T09:09:19.158Z,45.10
2023-05-22T09:11:46.232Z,45.54
2023-05-22T09:14:14.081Z,46.14
2023-05-22T09:16:49.017Z,47.41
2023-05-22T09:19:16.308Z,47.09
2023-05-22T09:21:44.630Z,48.41
2023-05-22T09:24:11.891Z,48.10
2023-05-22T09:26:39.458Z,46.83
2023-05-22T09:29:07.664Z,45.13
2023-05-22T09:31:44.748Z,44.67
2023-05-22T09:34:14.336Z,45.28
2023-05-22T09:36:44.155Z,45.26
2023-05-22T09:39:11.378Z,44.19
2023-05-22T09:41:39.941Z,45.98
2023-05-22T09:44:16.644Z,44.54
2023-05-22T09:46:47.470Z,43.17
2023-05-22T09:49:16.407Z,44.15
2023-05-22T09:51:47.939Z,44.44
2023-05-22T09:54:16.169Z,45.92
2023-05-22T09:56:44.326Z,43.70
2023-05-22T09:59:13.985Z,42.84
2023-05-22T10:01:42.651Z,41.96
2023-05-22T10:04:13.289Z,41.26
2023-05-22T10:06:40.951Z,41.02
2023-05-22T10:09:13.326Z,40.22
2023-05-22T10:11:40.508Z,41.14
2023-05-22T10:14:09.027Z,41.74
2023-05-22T10:16:38.443Z,41.51
2023-05-22T10:19:06.917Z,41.30
2023-05-22T10:21:36.899Z,40.37
2023-05-22T10:24:03.940Z,38.41
2023-05-22T10:26:31.714Z,38.61
2023-05-22T10:29:05.327Z,39.23
2023-05-22T10:32:00.030Z,40.28
2023-05-22T10:34:34.885Z,41.11
2023-05-22T10:37:25.973Z,41.03
2023-05-22T10:40:04.923Z,40.75
2023-05-22T10:42:32.540Z,40.85
2023-05-22T10:45:04.322Z,41.17
2023-05-22T10:47:34.273Z,41.77
2023-05-22T10:50:12.339Z,39.36
2023-05-22T10:52:40.552Z,38.93
2023-05-22T10:55:11.953Z,39.38
2023-05-22T10:57:39.780Z,39.50
2023-05-22T11:00:15.808Z,38.22
2023-05-22T11:02:45.291Z,39.38
2023-05-22T11:05:22.020Z,40.24
2023-05-22T11:07:50.145Z,40.51
2023-05-22T11:10:27.348Z,38.62
2023-05-22T11:13:13.655Z,38.23
2023-05-22T11:15:45.436Z,35.53
2023-05-22T11:18:12.972Z,36.64
2023-05-22T11:20:40.369Z,35.91
2023-05-22T11:23:08.440Z,36.08
2023-05-22T11:25:37.809Z,35.81
2023-05-22T11:28:06.717Z,36.42
2023-05-22T11:30:34.452Z,36.82
2023-05-22T11:33:02.368Z,36.44
2023-05-22T11:35:29.211Z,36.15
2023-05-22T11:37:56.526Z,35.46
2023-05-22T11:40:26.097Z,36.69
2023-05-22T11:42:53.814Z,36.85
2023-05-22T11:45:21.441Z,37.07
2023-05-22T11:47:48.892Z,38.40
2023-05-22T11:50:22.770Z,41.32
2023-05-22T11:52:54.006Z,40.10
2023-05-22T11:55:20.797Z,40.57
2023-05-22T11:57:48.102Z,41.33
2023-05-22T12:00:15.421Z,40.93
2023-05-22T12:02:47.734Z,43.24
2023-05-22T12:05:16.076Z,43.05
2023-05-22T12:07:43.376Z,43.83
2023-05-22T12:10:11.211Z,43.66
2023-05-22T12:12:38.791Z,42.54
2023-05-22T12:15:07.164Z,42.07
2023-05-22T12:17:36.021Z,41.60
2023-05-22T12:20:04.134Z,43.08
2023-05-22T12:22:30.941Z,41.29
2023-05-22T12:24:57.645Z,41.56
2023-05-22T12:27:24.456Z,39.87
2023-05-22T12:29:52.930Z,39.37
2023-05-22T12:32:22.076Z,39.49
2023-05-22T12:34:50.418Z,39.19
2023-05-22T12:37:28.354Z,38.43
2023-05-22T12:39:59.936Z,41.04
2023-05-22T12:42:27.565Z,40.88
2023-05-22T12:44:56.541Z,43.22
2023-05-22T12:47:24.591Z,45.87
2023-05-22T12:49:51.692Z,44.12
2023-05-22T12:52:18.698Z,44.59
2023-05-22T12:54:45.492Z,42.73
2023-05-22T12:57:17.180Z,46.89
2023-05-22T12:59:44.327Z,46.12
2023-05-22T13:02:11.049Z,45.91
2023-05-22T13:04:37.763Z,50.21
2023-05-22T13:07:13.740Z,53.51
2023-05-22T13:09:40.373Z,54.08
2023-05-22T13:12:07.758Z,53.13
2023-05-22T13:14:34.528Z,55.35
2023-05-22T13:17:01.311Z,55.96
2023-05-22T13:19:28.043Z,53.32
2023-05-22T13:21:54.841Z,52.42
2023-05-22T13:24:22.588Z,56.43
2023-05-22T13:26:49.211Z,55.42
2023-05-22T13:29:15.886Z,54.12
2023-05-22T13:31:42.608Z,51.04
2023-05-22T13:34:09.655Z,51.22
2023-05-22T13:36:36.292Z,50.19
2023-05-22T13:39:03.083Z,49.64
2023-05-22T13:41:29.843Z,52.50
2023-05-22T13:43:56.644Z,48.93
2023-05-22T13:46:23.443Z,47.99
2023-05-22T13:48:50.176Z,48.03
2023-05-22T13:51:17.277Z,42.76
2023-05-22T13:53:44.021Z,39.98
2023-05-22T13:56:10.763Z,39.50
2023-05-22T13:58:37.410Z,42.43
2023-05-22T14:01:04.140Z,40.31
2023-05-22T14:03:30.900Z,41.06
2023-05-22T14:05:57.705Z,39.30
2023-05-22T14:08:24.722Z,36.01
2023-05-22T14:10:51.420Z,37.34
2023-05-22T14:13:18.168Z,37.05
2023-05-22T14:15:47.052Z,39.71
2023-05-22T14:18:16.432Z,38.05
2023-05-22T14:20:43.697Z,38.58
2023-05-22T14:23:10.559Z,37.81
2023-05-22T14:25:37.263Z,37.16
2023-05-22T14:28:04.009Z,35.39
2023-05-22T14:30:31.026Z,32.77
2023-05-22T14:32:57.897Z,34.75
2023-05-22T14:35:24.726Z,33.25
2023-05-22T14:37:51.573Z,34.94
2023-05-22T14:40:18.543Z,33.56
2023-05-22T14:42:45.762Z,34.42
2023-05-22T14:45:12.723Z,33.54
2023-05-22T14:47:40.901Z,35.46
2023-05-22T14:50:18.890Z,36.02
2023-05-22T14:52:47.517Z,34.86
2023-05-22T14:55:17.907Z,34.28
2023-05-22T14:57:45.161Z,33.92
2023-05-22T15:00:12.824Z,33.79
2023-05-22T15:02:41.138Z,33.30
2023-05-22T15:05:08.573Z,32.87
2023-05-22T15:10:07.501Z,35.96
2023-05-22T15:12:34.217Z,36.47
2023-05-22T15:15:01.654Z,36.02
2023-05-22T15:17:28.569Z,36.00
2023-05-22T15:19:55.500Z,35.96
2023-05-22T15:22:22.210Z,35.20
2023-05-22T15:24:49.058Z,36.89
2023-05-22T15:27:17.377Z,36.99
2023-05-22T15:29:44.167Z,37.89
2023-05-22T15:32:11.224Z,38.94
2023-05-22T15:34:37.999Z,38.80
2023-05-22T15:37:04.885Z,39.43
2023-05-22T15:39:31.599Z,40.03
2023-05-22T15:42:06.017Z,41.42
2023-05-22T15:44:33.684Z,43.03
2023-05-22T15:47:00.458Z,42.46
2023-05-22T15:49:29.330Z,43.08
2023-05-22T15:51:58.413Z,42.70
2023-05-22T15:54:25.183Z,43.39
2023-05-22T15:56:51.802Z,43.25
2023-05-22T15:59:18.525Z,43.94
2023-05-22T16:01:45.323Z,44.67
2023-05-22T16:04:12.217Z,45.75
2023-05-22T16:06:41.046Z,45.10
2023-05-22T16:09:08.108Z,45.93
2023-05-22T16:11:34.935Z,45.98
2023-05-22T16:14:01.612Z,45.76
2023-05-22T16:16:28.351Z,46.20
2023-05-22T16:18:55.227Z,45.43
2023-05-22T16:21:22.147Z,44.89
2023-05-22T16:23:48.824Z,46.29
2023-05-22T16:26:15.630Z,46.48
2023-05-22T16:28:42.395Z,47.47
2023-05-22T16:31:09.180Z,48.58
2023-05-22T16:33:37.564Z,49.06
2023-05-22T16:36:04.861Z,49.12
2023-05-22T16:38:31.594Z,48.82
2023-05-22T16:40:58.858Z,49.26
2023-05-22T16:43:25.720Z,49.85
2023-05-22T16:45:52.367Z,49.59
2023-05-22T16:48:19.160Z,48.27
2023-05-22T16:50:46.931Z,48.77
2023-05-22T16:53:16.759Z,46.51
2023-05-22T16:55:43.916Z,47.68
2023-05-22T16:58:11.723Z,47.39
2023-05-22T17:00:40.125Z,46.28
2023-05-22T17:03:08.237Z,46.09
2023-05-22T17:05:35.901Z,45.16
2023-05-22T17:08:03.167Z,47.22
2023-05-22T17:10:29.982Z,47.29
2023-05-22T17:12:56.871Z,48.60
2023-05-22T17:15:23.663Z,48.85
2023-05-22T17:17:50.841Z,48.84
2023-05-22T17:20:17.823Z,49.00
2023-05-22T17:22:44.567Z,49.28
2023-05-22T17:25:11.249Z,49.55
2023-05-22T17:27:39.017Z,50.18
2023-05-22T17:30:07.594Z,50.80
2023-05-22T17:32:35.176Z,50.59
2023-05-22T17:35:02.343Z,50.89
2023-05-22T17:37:29.051Z,49.77
2023-05-22T17:39:55.765Z,50.00
2023-05-22T17:42:23.072Z,49.77
2023-05-22T17:44:49.890Z,49.48
2023-05-22T17:47:16.737Z,50.00
2023-05-22T17:49:43.563Z,50.48
2023-05-22T17:52:11.118Z,51.10
2023-05-22T17:54:37.846Z,51.92
2023-05-22T17:57:04.602Z,52.69
2023-05-22T17:59:32.664Z,53.42
2023-05-22T18:01:59.477Z,53.75
2023-05-22T18:04:26.525Z,54.17
2023-05-22T18:06:53.201Z,54.55
2023-05-22T18:09:19.868Z,54.59
2023-05-22T18:11:46.620Z,55.38
2023-05-22T18:14:13.323Z,55.65
2023-05-22T18:16:39.993Z,56.72
2023-05-22T18:19:06.739Z,57.42
2023-05-22T18:21:33.490Z,57.66
2023-05-22T18:24:00.217Z,57.79
2023-05-22T18:26:27.153Z,60.79
2023-05-22T18:28:53.902Z,60.46
2023-05-22T18:31:20.763Z,61.36
2023-05-22T18:33:47.484Z,63.15
2023-05-22T18:36:14.256Z,63.05
2023-05-22T18:38:41.126Z,62.87
2023-05-22T18:41:07.875Z,63.19
2023-05-22T18:43:34.638Z,63.92
2023-05-22T18:46:01.302Z,64.10
2023-05-22T18:48:28.537Z,64.72
2023-05-22T18:50:57.478Z,64.57
2023-05-22T18:53:27.627Z,64.44
2023-05-22T18:55:54.391Z,64.70
2023-05-22T18:58:21.673Z,64.84
2023-05-22T19:00:49.775Z,65.11
2023-05-22T19:03:16.438Z,65.61
2023-05-22T19:05:43.178Z,66.85
2023-05-22T19:10:57.567Z,67.46
2023-05-22T19:13:24.257Z,68.09
2023-05-22T19:15:51.007Z,68.27
2023-05-22T19:18:18.384Z,69.25
2023-05-22T19:20:45.070Z,69.31
2023-05-22T19:23:13.644Z,69.93
2023-05-22T19:25:40.312Z,70.24
2023-05-22T19:28:07.257Z,70.86
2023-05-22T19:30:33.990Z,72.50
2023-05-22T19:33:01.923Z,73.15
2023-05-22T19:35:28.581Z,73.63
2023-05-22T19:37:55.296Z,73.75
2023-05-22T19:40:22.039Z,74.75
2023-05-22T19:42:48.858Z,74.77
2023-05-22T19:45:15.561Z,74.89
2023-05-22T19:47:42.360Z,75.76
2023-05-22T19:50:09.525Z,76.40
2023-05-22T19:52:36.280Z,77.02
2023-05-22T19:55:03.018Z,78.23
2023-05-22T19:57:29.733Z,79.12
2023-05-22T19:59:56.474Z,78.72
2023-05-22T20:02:23.234Z,79.04
2023-05-22T20:04:49.976Z,79.10
2023-05-22T20:07:16.857Z,79.28
2023-05-22T20:09:43.488Z,79.77
2023-05-22T20:12:10.526Z,78.37
2023-05-22T20:14:38.360Z,78.73
2023-05-22T20:17:05.585Z,77.87
2023-05-22T20:19:34.514Z,80.50
2023-05-22T20:22:02.169Z,80.96
2023-05-22T20:24:29.687Z,80.82
2023-05-22T20:26:56.905Z,78.46
2023-05-22T20:29:23.870Z,78.98
2023-05-22T20:31:54.691Z,79.74
2023-05-22T20:34:22.298Z,79.83
2023-05-22T20:36:50.487Z,80.13
2023-05-22T20:39:18.154Z,79.67
2023-05-22T20:41:45.571Z,79.80
2023-05-22T20:44:12.309Z,82.01
2023-05-22T20:46:39.011Z,83.61
2023-05-22T20:49:06.161Z,83.05
2023-05-22T20:51:33.635Z,81.68
2023-05-22T20:54:00.434Z,82.40
2023-05-22T20:56:27.531Z,83.23
2023-05-22T20:58:54.849Z,84.60
2023-05-22T21:01:21.892Z,84.38
2023-05-22T21:03:51.461Z,84.33
2023-05-22T21:06:19.047Z,84.36
2023-05-22T21:08:45.704Z,84.90
2023-05-22T21:11:12.386Z,85.80
2023-05-22T21:13:40.153Z,85.88
2023-05-22T21:16:08.252Z,86.78
2023-05-22T21:18:35.117Z,87.14
2023-05-22T21:21:01.852Z,86.85
2023-05-22T21:23:28.555Z,86.68
2023-05-22T21:25:55.172Z,85.41
2023-05-22T21:28:21.905Z,85.08
2023-05-22T21:30:48.516Z,85.60
2023-05-22T21:33:15.275Z,86.83
2023-05-22T21:35:42.073Z,87.27
2023-05-22T21:38:08.734Z,87.17
2023-05-22T21:40:35.455Z,88.13
2023-05-22T21:43:02.189Z,88.38
2023-05-22T21:45:28.826Z,88.38
2023-05-22T21:47:55.568Z,88.42
2023-05-22T21:50:22.276Z,88.27
2023-05-22T21:52:48.918Z,88.69
2023-05-22T21:55:15.760Z,88.95
2023-05-22T21:57:42.443Z,89.25
2023-05-22T22:00:09.733Z,88.41
2023-05-22T22:02:36.432Z,88.27
2023-05-22T22:05:03.160Z,89.39
2023-05-22T22:07:29.799Z,89.44
2023-05-22T22:09:56.464Z,89.70
2023-05-22T22:12:23.114Z,88.27
2023-05-22T22:14:49.766Z,88.15
2023-05-22T22:17:23.676Z,88.16
2023-05-22T22:19:53.485Z,88.74
2023-05-22T22:22:22.723Z,89.22
2023-05-22T22:24:49.503Z,89.25
2023-05-22T22:27:16.505Z,90.46
2023-05-22T22:29:43.780Z,89.76
2023-05-22T22:32:10.690Z,90.30
2023-05-22T22:34:37.705Z,90.43
2023-05-22T22:37:05.738Z,90.19
2023-05-22T22:39:32.388Z,90.10
2023-05-22T22:42:05.101Z,89.34
2023-05-22T22:44:32.493Z,89.28
2023-05-22T22:46:59.253Z,89.97
2023-05-22T22:49:25.893Z,90.61
2023-05-22T22:51:52.668Z,90.41
2023-05-22T22:54:19.474Z,89.19
2023-05-22T22:56:47.378Z,88.92
2023-05-22T22:59:14.154Z,88.97
2023-05-22T23:01:40.863Z,89.35
2023-05-22T23:04:07.734Z,88.82
2023-05-22T23:06:34.696Z,88.85
2023-05-22T23:09:03.720Z,88.17
2023-05-22T23:11:39.431Z,88.63
2023-05-22T23:14:07.833Z,87.91
2023-05-22T23:16:41.083Z,87.83
2023-05-22T23:19:09.092Z,87.51
2023-05-22T23:21:37.929Z,87.10
2023-05-22T23:24:05.253Z,87.32
2023-05-22T23:26:32.924Z,86.50
2023-05-22T23:29:00.261Z,85.82
2023-05-22T23:31:30.671Z,86.35
2023-05-22T23:33:57.992Z,86.36
2023-05-22T23:36:25.363Z,85.73
2023-05-22T23:38:52.079Z,86.31
2023-05-22T23:41:19.101Z,86.79
2023-05-22T23:43:46.224Z,86.98
2023-05-22T23:46:14.257Z,87.37
2023-05-22T23:48:41.942Z,87.22
2023-05-22T23:51:14.395Z,87.10
2023-05-22T23:53:41.943Z,86.35
2023-05-22T23:56:09.495Z,86.79
2023-05-22T23:58:37.755Z,86.90
